Time;durP1;ratioP1;P1;durP2;ratioP2;P2;SDS_P1;SDS_P2;PMS_P1;PMS_P2;Temp;Humidity;BMP_temperature;BMP_pressure;BME280_temperature;BME280_humidity;BME280_pressure;Samples;Min_cycle;Max_cycle;Signal;HPM_P1;HPM_P2
2022/11/18 00:00:13;;;;;;;7.93;3.75;;;;;;;6.40;100.00;99335.03;10359970;28;20493;-82
2022/11/18 00:05:14;;;;;;;6.38;2.83;;;;;;;6.46;100.00;99340.47;10359307;28;20616;-81
2022/11/18 00:10:15;;;;;;;16.13;3.58;;;;;;;6.47;100.00;99335.31;10358519;28;20528;-81
2022/11/18 00:15:15;;;;;;;23.52;4.93;;;;;;;6.52;100.00;99347.59;10364843;28;20038;-81
2022/11/18 00:20:16;;;;;;;9.48;4.10;;;;;;;6.58;100.00;99347.84;10367037;28;20050;-81
2022/11/18 00:25:17;;;;;;;12.63;3.40;;;;;;;6.56;100.00;99353.00;10367028;28;20092;-81
2022/11/18 00:30:17;;;;;;;9.32;3.10;;;;;;;6.43;100.00;99350.72;10366208;28;20041;-80
2022/11/18 00:35:18;;;;;;;7.93;4.10;;;;;;;6.29;100.00;99355.34;10365227;28;20049;-82
2022/11/18 00:40:18;;;;;;;8.32;5.03;;;;;;;6.10;100.00;99353.72;10365732;28;20129;-81
2022/11/18 00:45:19;;;;;;;8.85;2.45;;;;;;;6.08;100.00;99368.38;10364708;28;20068;-82
2022/11/18 00:50:20;;;;;;;10.48;4.07;;;;;;;6.09;100.00;99376.22;10365218;28;20383;-81
2022/11/18 00:55:20;;;;;;;9.50;4.63;;;;;;;6.10;100.00;99374.53;10365589;28;20138;-81
2022/11/18 01:00:21;;;;;;;5.75;2.83;;;;;;;6.10;100.00;99375.38;10365726;28;20413;-81
2022/11/18 01:05:22;;;;;;;8.27;2.92;;;;;;;6.16;100.00;99385.16;10362787;28;20042;-81
2022/11/18 01:10:22;;;;;;;7.43;2.95;;;;;;;6.19;100.00;99395.69;10347874;28;20137;-82
2022/11/18 01:15:23;;;;;;;9.55;3.05;;;;;;;6.20;100.00;99399.16;10365585;28;20160;-82
2022/11/18 01:20:23;;;;;;;8.05;3.47;;;;;;;6.26;100.00;99412.41;10362980;28;20455;-81
2022/11/18 01:25:24;;;;;;;7.82;3.08;;;;;;;6.35;100.00;99423.16;10363364;28;20121;-81
2022/11/18 01:30:24;;;;;;;8.85;3.30;;;;;;;6.41;100.00;99427.75;10360617;28;20164;-80
2022/11/18 01:35:25;;;;;;;9.10;3.15;;;;;;;6.39;100.00;99432.00;10360646;28;20125;-80
2022/11/18 01:40:26;;;;;;;9.73;3.58;;;;;;;6.46;100.00;99440.09;10362358;28;20393;-80
2022/11/18 01:45:33;;;;;;;11.35;2.80;;;;;;;6.44;100.00;99435.69;10364612;28;20038;-81
2022/11/18 01:50:34;;;;;;;8.65;2.72;;;;;;;6.43;100.00;99442.56;10361750;28;20521;-81
2022/11/18 01:55:36;;;;;;;9.00;4.57;;;;;;;6.45;100.00;99442.66;10343971;28;20042;-81
2022/11/18 02:00:36;;;;;;;9.57;2.13;;;;;;;6.42;100.00;99443.41;10362128;28;20034;-81
2022/11/18 02:05:37;;;;;;;10.68;3.97;;;;;;;6.42;100.00;99452.91;10358936;28;20042;-81
2022/11/18 02:10:37;;;;;;;10.95;4.43;;;;;;;6.42;100.00;99455.50;10359196;28;20402;-81
2022/11/18 02:15:59;;;;;;;10.18;3.67;;;;;;;6.43;100.00;99454.69;10362077;28;20074;-81
2022/11/18 02:21:16;;;;;;;12.80;4.28;;;;;;;6.46;100.00;99460.03;10360921;28;20533;-80
2022/11/18 02:26:44;;;;;;;8.48;2.80;;;;;;;6.51;100.00;99466.28;10360049;28;20042;-81
2022/11/18 02:31:47;;;;;;;9.25;2.80;;;;;;;6.57;100.00;99483.84;10372166;28;20397;-81
2022/11/18 02:37:01;;;;;;;7.90;2.28;;;;;;;6.63;100.00;99491.91;10359607;28;20046;-81
2022/11/18 02:42:05;;;;;;;11.65;5.00;;;;;;;6.67;100.00;99488.59;10357354;28;20092;-82
2022/11/18 02:47:07;;;;;;;12.32;2.90;;;;;;;6.80;100.00;99494.31;10342554;28;20038;-81
2022/11/18 02:52:08;;;;;;;17.97;3.53;;;;;;;6.83;100.00;99495.34;10357887;28;20143;-81
2022/11/18 02:57:08;;;;;;;6.18;2.67;;;;;;;6.92;100.00;99504.34;10342701;28;20042;-81
2022/11/18 03:02:14;;;;;;;12.60;2.72;;;;;;;6.96;100.00;99501.03;10359203;28;20067;-81
2022/11/18 03:07:28;;;;;;;7.60;2.90;;;;;;;6.95;100.00;99502.72;10355902;28;20521;-81
2022/11/18 03:12:46;;;;;;;6.93;2.53;;;;;;;6.98;100.00;99505.44;10359512;28;20513;-81
2022/11/18 03:18:08;;;;;;;10.73;2.90;;;;;;;7.01;100.00;99509.91;10374186;28;20076;-81
2022/11/18 03:23:09;;;;;;;;;;;;;;;7.17;100.00;99517.50;10360617;28;20072;-81
2022/11/18 03:28:17;;;;;;;9.48;2.00;;;;;;;7.12;100.00;99512.91;10359222;28;19927;-81
2022/11/18 03:33:20;;;;;;;8.27;1.73;;;;;;;7.14;100.00;99521.69;10357448;28;20033;-80
2022/11/18 03:38:24;;;;;;;11.38;2.47;;;;;;;7.17;100.00;99521.78;10341817;28;20486;-80
2022/11/18 03:43:26;;;;;;;3.83;1.73;;;;;;;7.16;100.00;99528.72;10342529;28;20037;-81
2022/11/18 03:48:31;;;;;;;16.90;3.47;;;;;;;7.12;100.00;99537.25;10345146;28;20444;-80
2022/11/18 03:53:32;;;;;;;6.20;1.95;;;;;;;6.97;100.00;99549.63;10383238;28;20081;-80
2022/11/18 03:58:37;;;;;;;3.63;2.17;;;;;;;6.73;100.00;99545.19;10351001;28;20042;-81
2022/11/18 04:03:37;;;;;;;7.85;3.80;;;;;;;6.57;100.00;99552.34;10350148;28;20038;-81
2022/11/18 04:08:38;;;;;;;9.02;2.35;;;;;;;6.54;100.00;99567.81;10344412;28;20632;-80
2022/11/18 04:13:42;;;;;;;5.88;1.83;;;;;;;6.53;100.00;99566.03;10363804;28;20042;-81
2022/11/18 04:18:44;;;;;;;12.93;3.58;;;;;;;6.69;100.00;99575.34;10333574;28;20379;-81
2022/11/18 04:23:45;;;;;;;6.90;2.95;;;;;;;6.63;100.00;99577.69;10365166;28;20080;-81
2022/11/18 04:28:45;;;;;;;5.50;3.70;;;;;;;6.58;100.00;99592.22;10364192;28;20474;-82
2022/11/18 04:33:46;;;;;;;6.53;2.22;;;;;;;6.66;100.00;99601.22;10355911;28;20104;-82
2022/11/18 04:38:46;;;;;;;9.90;1.85;;;;;;;6.61;100.00;99606.25;10349671;28;20053;-83
2022/11/18 04:43:47;;;;;;;11.90;4.53;;;;;;;6.74;100.00;99615.44;10366168;28;20048;-81
2022/11/18 04:48:47;;;;;;;12.48;3.55;;;;;;;6.78;100.00;99623.38;10363777;28;20145;-79
2022/11/18 04:53:48;;;;;;;7.10;1.83;;;;;;;6.83;100.00;99629.66;10364624;28;20575;-80
2022/11/18 04:58:48;;;;;;;4.43;1.55;;;;;;;6.83;100.00;99629.66;10375119;28;21619;-81
2022/11/18 05:03:49;;;;;;;7.30;2.50;;;;;;;6.93;100.00;99633.56;10367047;28;20528;-80
2022/11/18 05:08:49;;;;;;;5.32;2.47;;;;;;;6.88;100.00;99643.75;10363932;28;20034;-78
2022/11/18 05:13:50;;;;;;;5.32;2.25;;;;;;;6.88;100.00;99644.66;10361499;28;20041;-79
2022/11/18 05:18:50;;;;;;;12.25;2.60;;;;;;;6.73;100.00;99652.66;10363481;28;20042;-81
2022/11/18 05:23:51;;;;;;;7.82;3.17;;;;;;;6.65;100.00;99655.78;10362757;28;20140;-81
2022/11/18 05:28:51;;;;;;;5.78;1.70;;;;;;;6.44;100.00;99654.00;10363231;28;20038;-81
2022/11/18 05:33:52;;;;;;;6.35;1.98;;;;;;;6.17;100.00;99665.78;10360878;28;20076;-80
2022/11/18 05:38:52;;;;;;;5.25;2.33;;;;;;;6.02;100.00;99680.66;10362274;28;20116;-80
2022/11/18 05:43:53;;;;;;;7.43;2.33;;;;;;;5.81;100.00;99684.00;10362024;28;20395;-81
2022/11/18 05:48:53;;;;;;;8.45;2.55;;;;;;;5.85;100.00;99685.06;10360336;28;20038;-81
2022/11/18 05:53:54;;;;;;;7.80;3.35;;;;;;;5.77;100.00;99692.47;10343946;28;20367;-80
2022/11/18 05:58:55;;;;;;;4.32;3.13;;;;;;;5.63;100.00;99701.28;10357568;28;20566;-80
2022/11/18 06:03:55;;;;;;;7.10;2.97;;;;;;;5.55;100.00;99698.34;10342736;28;20042;-82
2022/11/18 06:09:01;;;;;;;6.93;2.00;;;;;;;5.33;100.00;99711.94;10349119;28;20041;-81
2022/11/18 06:14:15;;;;;;;7.80;2.92;;;;;;;5.22;100.00;99719.19;10322077;28;20060;-79
2022/11/18 06:19:23;;;;;;;8.73;3.47;;;;;;;5.13;100.00;99730.88;10355235;28;20046;-82
2022/11/18 06:24:24;;;;;;;5.68;2.85;;;;;;;5.17;100.00;99738.81;10340257;28;20029;-84
2022/11/18 06:29:26;;;;;;;7.57;3.08;;;;;;;5.17;100.00;99742.28;10340551;28;20042;-83
2022/11/18 06:34:27;;;;;;;9.23;3.13;;;;;;;5.01;100.00;99748.41;10342621;28;20034;-82
2022/11/18 06:39:28;;;;;;;5.43;3.10;;;;;;;4.89;100.00;99752.94;10367141;28;20500;-80
2022/11/18 06:44:29;;;;;;;8.82;4.00;;;;;;;4.79;100.00;99759.34;10386833;28;20037;-80
2022/11/18 06:49:29;;;;;;;11.73;4.95;;;;;;;4.72;100.00;99758.13;10356338;28;20096;-80
2022/11/18 06:54:30;;;;;;;8.57;3.08;;;;;;;4.62;100.00;99771.41;10359794;28;20038;-80
2022/11/18 06:59:31;;;;;;;8.38;4.28;;;;;;;4.47;100.00;99785.31;10359350;28;20041;-80
2022/11/18 07:04:33;;;;;;;7.82;4.57;;;;;;;4.44;100.00;99786.81;10352488;28;20034;-80
2022/11/18 07:09:34;;;;;;;;;;;;;;;4.57;100.00;99799.66;10354529;28;20132;-82
2022/11/18 07:14:34;;;;;;;9.25;4.93;;;;;;;4.62;100.00;99803.38;10330558;28;19929;-81
2022/11/18 07:19:35;;;;;;;12.55;4.97;;;;;;;4.64;100.00;99811.25;10355935;28;20612;-81
2022/11/18 07:24:36;;;;;;;11.98;6.68;;;;;;;4.69;100.00;99823.66;10356587;28;20037;-81
2022/11/18 07:29:37;;;;;;;16.57;6.60;;;;;;;5.02;100.00;99825.41;10356391;28;20053;-80
2022/11/18 07:34:37;;;;;;;14.55;5.82;;;;;;;5.15;100.00;99832.09;10359036;28;20030;-79
2022/11/18 07:39:38;;;;;;;9.93;5.40;;;;;;;5.19;100.00;99833.16;10357003;28;20114;-81
2022/11/18 07:44:39;;;;;;;17.15;6.07;;;;;;;5.27;100.00;99843.13;10355805;28;20038;-79
2022/11/18 07:49:39;;;;;;;8.88;5.43;;;;;;;5.37;100.00;99854.91;10359911;28;20052;-81
2022/11/18 07:54:40;;;;;;;8.68;5.10;;;;;;;5.42;100.00;99865.50;10358503;28;20061;-82
2022/11/18 07:59:40;;;;;;;8.93;4.60;;;;;;;5.47;100.00;99869.22;10340758;28;20124;-81
2022/11/18 08:04:41;;;;;;;11.38;7.00;;;;;;;5.61;100.00;99875.16;10357568;28;20044;-81
2022/11/18 08:09:41;;;;;;;11.52;5.07;;;;;;;5.63;100.00;99880.41;10358816;28;20046;-81
2022/11/18 08:14:42;;;;;;;13.70;5.72;;;;;;;5.68;100.00;99878.94;10355360;28;20040;-80
2022/11/18 08:19:42;;;;;;;7.90;4.85;;;;;;;5.82;100.00;99879.66;10335172;28;20084;-78
2022/11/18 08:24:44;;;;;;;6.35;4.55;;;;;;;5.85;100.00;99890.19;10349506;28;20034;-79
2022/11/18 08:29:45;;;;;;;;;;;;;;;5.96;100.00;99888.13;10380452;28;20509;-80
2022/11/18 08:34:45;;;;;;;10.40;4.97;;;;;;;6.02;100.00;99888.47;10358749;28;19926;-77
2022/11/18 08:39:47;;;;;;;6.90;3.75;;;;;;;6.12;100.00;99897.63;10363671;28;20068;-79
2022/11/18 08:44:48;;;;;;;14.45;7.13;;;;;;;6.36;100.00;99899.66;10364460;28;20052;-83
2022/11/18 08:49:48;;;;;;;6.68;3.63;;;;;;;6.62;100.00;99913.91;10363369;28;20124;-82
2022/11/18 08:54:49;;;;;;;9.65;4.65;;;;;;;6.86;100.00;99906.41;10359362;28;20457;-80
2022/11/18 08:59:49;;;;;;;8.10;3.60;;;;;;;7.28;100.00;99902.22;10370362;28;20128;-82
2022/11/18 09:04:50;;;;;;;7.50;3.10;;;;;;;7.58;100.00;99905.28;10360660;28;20126;-80
2022/11/18 09:09:51;;;;;;;8.07;3.53;;;;;;;7.76;100.00;99907.84;10358490;28;20045;-80
2022/11/18 09:14:51;;;;;;;7.03;2.75;;;;;;;7.91;100.00;99912.81;10364071;28;20080;-82
2022/11/18 09:19:52;;;;;;;7.35;3.90;;;;;;;8.20;100.00;99913.16;10362024;28;20141;-82
2022/11/18 09:24:52;;;;;;;6.68;2.95;;;;;;;8.43;100.00;99913.22;10377521;28;20030;-83
2022/11/18 09:29:53;;;;;;;12.88;4.70;;;;;;;8.70;97.43;99909.97;10361726;28;20113;-82
2022/11/18 09:34:53;;;;;;;59.58;34.95;;;;;;;9.03;94.54;99911.25;10378092;28;20034;-81
2022/11/18 09:39:54;;;;;;;6.88;3.25;;;;;;;9.99;92.09;99926.06;10361408;28;20087;-82
2022/11/18 09:45:09;;;;;;;7.35;3.20;;;;;;;13.29;74.46;99915.19;10348976;28;20092;-82
2022/11/18 09:50:20;;;;;;;4.18;2.15;;;;;;;14.95;64.83;99930.50;10321771;28;20403;-82
2022/11/18 09:55:21;;;;;;;8.82;2.38;;;;;;;15.48;59.79;99934.72;10305701;28;20037;-82
2022/11/18 10:00:23;;;;;;;5.10;2.38;;;;;;;16.43;57.02;99930.47;10337567;28;20042;-82
2022/11/18 10:05:57;;;;;;;7.53;2.28;;;;;;;16.51;56.24;99939.34;10352014;28;20093;-82
2022/11/18 10:11:09;;;;;;;8.55;2.67;;;;;;;16.70;54.59;99945.66;10323197;28;20084;-83
2022/11/18 10:16:25;;;;;;;7.63;2.35;;;;;;;16.10;55.22;99958.31;10346067;28;20120;-82
2022/11/18 10:21:45;;;;;;;5.50;2.78;;;;;;;16.13;56.44;99963.63;10360957;28;20034;-82
2022/11/18 10:26:45;;;;;;;6.55;2.33;;;;;;;16.33;54.22;99965.59;10360304;28;20050;-83
2022/11/18 10:31:55;;;;;;;8.10;2.08;;;;;;;14.92;60.04;99970.84;10359765;28;20113;-82
2022/11/18 10:37:20;;;;;;;8.48;2.95;;;;;;;15.16;56.95;99973.84;10360961;28;20064;-82
2022/11/18 10:42:30;;;;;;;7.63;2.25;;;;;;;13.24;64.73;99979.91;10344482;28;20104;-81
2022/11/18 10:47:31;;;;;;;6.80;2.40;;;;;;;13.66;64.31;99972.91;10359135;28;20046;-82
2022/11/18 10:52:32;;;;;;;18.60;3.90;;;;;;;11.84;70.87;99984.22;10360269;28;20099;-82
2022/11/18 10:57:39;;;;;;;5.10;1.65;;;;;;;11.20;74.96;99994.56;10317875;28;20087;-85
2022/11/18 11:02:39;;;;;;;6.18;2.30;;;;;;;12.61;71.93;99990.66;10354786;28;20037;-80
2022/11/18 11:07:40;;;;;;;6.80;2.30;;;;;;;12.90;69.23;99998.38;10324695;28;20508;-80
2022/11/18 11:12:45;;;;;;;5.47;1.65;;;;;;;12.99;68.37;99994.19;10357347;28;20441;-80
2022/11/18 11:18:40;;;;;;;6.82;2.40;;;;;;;12.40;71.18;99997.97;10355816;28;20494;-79
2022/11/18 11:23:13;;;;;;;8.85;2.33;;;;;;;12.10;71.50;100001.56;10345948;28;20042;-82
2022/11/18 11:28:40;;;;;;;7.53;2.70;;;;;;;11.36;75.08;100005.53;10357050;28;20038;-77
2022/11/18 11:33:55;;;;;;;6.63;2.35;;;;;;;10.84;77.86;100010.88;10355029;28;20034;-78
2022/11/18 11:39:21;;;;;;;28.95;16.42;;;;;;;11.02;79.18;100007.97;10358569;28;20044;-79
2022/11/18 11:44:50;;;;;;;12.23;5.57;;;;;;;10.95;78.57;100013.84;10343671;28;20054;-78
2022/11/18 11:50:06;;;;;;;9.68;3.80;;;;;;;10.94;78.09;100014.69;10357068;28;20045;-77
2022/11/18 11:55:12;;;;;;;7.88;3.38;;;;;;;11.13;79.48;100016.19;10355320;28;20034;-78
2022/11/18 12:00:16;;;;;;;8.73;3.13;;;;;;;11.19;78.71;100013.75;10365415;28;20042;-77
2022/11/18 12:05:35;;;;;;;5.50;2.30;;;;;;;11.23;79.52;100014.72;10402372;28;20037;-78
2022/11/18 12:10:49;;;;;;;9.05;3.28;;;;;;;11.09;80.09;100016.91;10403185;28;20046;-78
2022/11/18 12:16:11;;;;;;;7.18;4.45;;;;;;;11.24;79.36;100019.13;10420842;28;20044;-79
2022/11/18 12:21:43;;;;;;;9.60;3.17;;;;;;;11.57;79.17;100024.53;10406278;28;20447;-77
2022/11/18 12:26:45;;;;;;;10.40;3.13;;;;;;;11.31;77.53;100024.63;10398355;28;20041;-79
2022/11/18 12:31:46;;;;;;;8.43;2.75;;;;;;;11.06;81.01;100027.28;10363175;28;20441;-79
2022/11/18 12:36:46;;;;;;;8.90;3.05;;;;;;;10.79;81.44;100023.81;10362403;28;20103;-80
2022/11/18 12:47:35;;;;;;;13.82;8.48;;;;;;;10.71;82.53;100017.44;10361614;28;20409;-81
2022/11/18 12:52:36;;;;;;;10.82;4.13;;;;;;;11.14;80.31;100017.97;10363380;28;20072;-79
2022/11/18 12:57:36;;;;;;;7.93;1.98;;;;;;;11.87;75.71;100025.38;10363083;28;20095;-79
2022/11/18 13:02:37;;;;;;;4.07;1.80;;;;;;;11.99;75.15;100030.09;10360685;28;20449;-81
2022/11/18 13:13:05;;;;;;;8.63;2.10;;;;;;;11.94;74.70;100034.31;10360610;28;20120;-80
2022/11/18 13:18:16;;;;;;;10.38;2.65;;;;;;;12.36;73.56;100040.72;10360606;28;20038;-80
2022/11/18 13:29:03;;;;;;;4.30;1.60;;;;;;;12.10;74.21;100049.66;10361431;28;20269;-80
2022/11/18 13:34:16;;;;;;;9.50;2.65;;;;;;;11.70;74.29;100058.97;10363418;28;20042;-85
2022/11/18 13:39:30;;;;;;;5.03;2.70;;;;;;;10.90;78.41;100059.94;10360462;28;20124;-82
2022/11/18 13:44:35;;;;;;;15.10;2.53;;;;;;;10.46;80.11;100066.31;10359785;28;20120;-82
2022/11/18 13:49:39;;;;;;;4.75;2.60;;;;;;;10.22;82.36;100066.28;10361324;28;20486;-81
2022/11/18 13:54:39;;;;;;;18.92;3.38;;;;;;;10.22;83.43;100056.72;10361130;28;20099;-81
2022/11/18 13:59:40;;;;;;;5.75;1.67;;;;;;;10.15;83.45;100062.56;10343130;28;20030;-80
2022/11/18 14:05:14;;;;;;;6.07;2.10;;;;;;;10.02;85.12;100068.16;10376732;28;20102;-82
2022/11/18 14:10:15;;;;;;;11.43;2.65;;;;;;;9.88;86.88;100071.16;10400038;28;20037;-83
2022/11/18 14:15:33;;;;;;;75.00;41.92;;;;;;;9.76;87.86;100066.38;10382773;28;20405;-81
2022/11/18 14:20:34;;;;;;;10.88;5.55;;;;;;;9.64;89.26;100072.00;10400189;28;20442;-82
2022/11/18 14:25:35;;;;;;;5.43;2.67;;;;;;;9.62;89.01;100078.88;10398362;28;20117;-81
2022/11/18 14:30:36;;;;;;;9.68;2.17;;;;;;;9.63;89.16;100071.97;10399565;28;20110;-81
2022/11/18 14:35:38;;;;;;;6.95;2.08;;;;;;;9.57;89.06;100087.41;10398242;28;20030;-81
2022/11/18 14:40:38;;;;;;;7.33;3.47;;;;;;;9.52;89.35;100082.88;10365703;28;20041;-81
2022/11/18 14:45:39;;;;;;;5.25;2.33;;;;;;;9.61;88.04;100092.78;10382683;28;20053;-84
2022/11/18 14:50:39;;;;;;;7.47;2.92;;;;;;;9.53;87.88;100091.59;10381925;28;20057;-80
2022/11/18 14:55:40;;;;;;;9.88;2.67;;;;;;;9.38;88.82;100102.34;10399281;28;20175;-80
2022/11/18 15:00:41;;;;;;;5.78;2.10;;;;;;;9.34;88.37;100096.09;10382069;28;20056;-78
2022/11/18 15:05:42;;;;;;;7.70;3.03;;;;;;;9.20;90.05;100105.06;10397641;28;20095;-78
2022/11/18 15:10:42;;;;;;;8.18;2.90;;;;;;;8.90;93.70;100109.09;10398903;28;20187;-79
2022/11/18 15:15:43;;;;;;;7.40;2.78;;;;;;;8.68;96.46;100120.31;10396087;28;20051;-79
2022/11/18 15:20:43;;;;;;;10.75;3.38;;;;;;;8.40;99.72;100124.28;10399030;28;20047;-79
2022/11/18 15:25:44;;;;;;;6.78;2.63;;;;;;;8.18;100.00;100128.53;10371379;28;20427;-79
2022/11/18 15:30:44;;;;;;;6.47;3.00;;;;;;;8.11;100.00;100138.63;10356411;28;20049;-82
2022/11/18 15:35:45;;;;;;;12.15;3.90;;;;;;;7.98;100.00;100160.63;10396288;28;20060;-86
2022/11/18 15:40:45;;;;;;;6.80;3.25;;;;;;;7.82;100.00;100159.91;10400206;28;20033;-87
2022/11/18 15:45:46;;;;;;;7.07;3.45;;;;;;;7.64;100.00;100172.94;10395046;28;20040;-85
2022/11/18 15:50:47;;;;;;;9.05;4.30;;;;;;;7.50;100.00;100180.06;10396750;28;20172;-86
2022/11/18 15:55:47;;;;;;;12.52;6.30;;;;;;;7.47;100.00;100186.03;10384721;28;20567;-86
2022/11/18 16:00:48;;;;;;;14.50;6.57;;;;;;;7.37;100.00;100186.41;10372276;28;20066;-84
2022/11/18 16:05:48;;;;;;;8.43;4.53;;;;;;;7.31;100.00;100194.78;10358645;28;20380;-83
2022/11/18 16:16:20;;;;;;;8.95;6.45;;;;;;;7.17;100.00;100195.81;10378232;28;20136;-82
2022/11/18 16:21:20;;;;;;;9.90;5.80;;;;;;;7.11;100.00;100200.69;10336834;28;20490;-85
2022/11/18 16:26:23;;;;;;;16.38;7.65;;;;;;;7.12;100.00;100197.28;10355121;28;20069;-84
2022/11/18 16:31:39;;;;;;;11.52;6.32;;;;;;;7.08;100.00;100213.53;10347673;28;20061;-79
2022/11/18 16:36:41;;;;;;;11.95;6.43;;;;;;;7.04;100.00;100202.09;10355938;28;20128;-82
2022/11/18 16:41:43;;;;;;;9.65;5.15;;;;;;;7.02;100.00;100208.94;10353636;28;20221;-83
2022/11/18 16:46:48;;;;;;;10.95;6.38;;;;;;;7.00;100.00;100221.84;10350381;28;20049;-83
2022/11/18 16:51:50;;;;;;;12.75;6.32;;;;;;;7.05;100.00;100235.13;10379910;28;20524;-83
2022/11/18 16:56:51;;;;;;;;;;;;;;;7.08;100.00;100237.88;10379627;28;20045;-83
2022/11/18 17:01:52;;;;;;;8.80;5.97;;;;;;;7.05;100.00;100240.31;10369926;28;20361;-84
2022/11/18 17:06:53;;;;;;;14.33;6.73;;;;;;;7.01;100.00;100236.66;10344653;28;20041;-83
2022/11/18 17:11:54;;;;;;;11.98;7.43;;;;;;;6.98;100.00;100238.22;10365057;28;20116;-82
2022/11/18 17:16:54;;;;;;;13.25;6.05;;;;;;;6.93;100.00;100248.38;10361689;28;20494;-83
2022/11/18 17:21:55;;;;;;;12.43;6.10;;;;;;;6.98;100.00;100246.03;10364295;28;20455;-87
2022/11/18 17:26:55;;;;;;;11.55;6.22;;;;;;;7.05;100.00;100245.53;10360016;28;20820;-83
2022/11/18 17:31:56;;;;;;;12.23;5.85;;;;;;;6.93;100.00;100243.16;10372718;28;20033;-84
2022/11/18 17:36:56;;;;;;;9.70;5.07;;;;;;;6.93;100.00;100245.75;10366531;28;20072;-89
2022/11/18 17:47:16;;;;;;;9.18;4.20;;;;;;;6.86;100.00;100260.16;10351923;28;20563;-81
2022/11/18 17:52:18;;;;;;;11.80;5.22;;;;;;;6.94;100.00;100257.09;10335991;28;20034;-81
2022/11/18 17:57:18;;;;;;;9.27;4.33;;;;;;;6.91;100.00;100265.59;10365164;28;20076;-84
2022/11/18 18:02:20;;;;;;;9.20;4.60;;;;;;;6.82;100.00;100262.50;10368170;28;20087;-81
2022/11/18 18:07:20;;;;;;;9.00;5.27;;;;;;;6.77;100.00;100267.50;10360295;28;20183;-82
2022/11/18 18:17:40;;;;;;;13.63;5.65;;;;;;;6.74;100.00;100275.13;10369199;28;20044;-85
2022/11/18 18:22:41;;;;;;;11.32;6.57;;;;;;;6.72;100.00;100276.75;10358586;28;20128;-90
2022/11/18 18:27:41;;;;;;;11.50;6.38;;;;;;;6.70;100.00;100276.66;10355316;28;20037;-87
2022/11/18 18:32:43;;;;;;;9.50;5.32;;;;;;;6.70;100.00;100280.97;10363338;28;20099;-89
2022/11/18 18:37:44;;;;;;;14.45;6.18;;;;;;;6.73;100.00;100278.53;10376000;28;20095;-89
2022/11/18 18:42:44;;;;;;;15.02;6.70;;;;;;;6.72;100.00;100289.75;10355521;28;20049;-83
2022/11/18 18:47:45;;;;;;;13.95;6.97;;;;;;;6.70;100.00;100287.06;10359961;28;20049;-87
2022/11/18 18:52:46;;;;;;;12.43;8.18;;;;;;;6.72;100.00;100285.44;10355577;28;20056;-84
2022/11/18 18:57:46;;;;;;;13.07;6.88;;;;;;;6.75;100.00;100289.91;10369197;28;20061;-84
2022/11/18 19:02:47;;;;;;;11.55;7.18;;;;;;;6.73;100.00;100282.03;10338875;28;20048;-83
2022/11/18 19:07:47;;;;;;;10.55;5.93;;;;;;;6.82;100.00;100291.13;10353768;28;20524;-80
2022/11/18 19:12:51;;;;;;;17.00;8.95;;;;;;;6.81;100.00;100294.53;10357699;28;20042;-80
2022/11/18 19:17:51;;;;;;;8.95;5.13;;;;;;;6.84;100.00;100292.09;10339133;28;20046;-80
2022/11/18 19:22:53;;;;;;;8.20;5.10;;;;;;;6.83;100.00;100295.50;10353469;28;20065;-80
2022/11/18 19:27:53;;;;;;;8.80;5.22;;;;;;;6.88;100.00;100301.84;10355974;28;20133;-81
2022/11/18 19:32:55;;;;;;;10.85;6.32;;;;;;;6.86;100.00;100299.19;10352988;28;20046;-81
2022/11/18 19:37:55;;;;;;;16.50;6.95;;;;;;;6.88;100.00;100305.38;10353703;28;20545;-81
2022/11/18 19:42:56;;;;;;;12.05;6.15;;;;;;;6.87;100.00;100318.28;10354945;28;20121;-80
2022/11/18 19:47:58;;;;;;;12.82;6.45;;;;;;;6.85;100.00;100317.31;10357637;28;20060;-82
2022/11/18 19:53:30;;;;;;;22.70;9.90;;;;;;;6.85;100.00;100328.63;10359889;28;20041;-81
2022/11/18 19:58:19;;;;;;;12.27;8.18;;;;;;;6.94;100.00;100328.19;10354060;28;20041;-82
2022/11/18 20:03:19;;;;;;;12.23;7.90;;;;;;;6.92;100.00;100332.44;10333916;28;20137;-80
2022/11/18 20:08:21;;;;;;;10.63;6.97;;;;;;;6.88;100.00;100325.28;10340264;28;20482;-83
2022/11/18 20:13:21;;;;;;;14.07;9.23;;;;;;;6.93;100.00;100331.63;10366021;28;20108;-83
2022/11/18 20:18:24;;;;;;;13.90;8.75;;;;;;;6.89;100.00;100332.25;10357295;28;20172;-83
2022/11/18 20:23:24;;;;;;;;;;;;;;;6.85;100.00;100336.44;10360355;28;20038;-83
2022/11/18 20:28:24;;;;;;;21.50;12.52;;;;;;;6.81;100.00;100333.56;10359923;28;19922;-83
2022/11/18 20:33:26;;;;;;;11.48;9.48;;;;;;;6.85;100.00;100341.63;10366829;28;20126;-83
2022/11/18 20:38:26;;;;;;;16.60;10.23;;;;;;;6.84;100.00;100338.94;10365464;28;20046;-84
2022/11/18 20:43:27;;;;;;;14.13;9.82;;;;;;;6.79;100.00;100338.69;10364226;28;20448;-84
2022/11/18 20:48:28;;;;;;;17.40;10.93;;;;;;;6.74;100.00;100343.63;10346274;28;20088;-80
2022/11/18 20:53:28;;;;;;;18.08;11.38;;;;;;;6.76;100.00;100342.00;10343076;28;20042;-81
2022/11/18 20:58:30;;;;;;;24.33;11.40;;;;;;;6.78;100.00;100341.19;10360482;28;20065;-82
2022/11/18 21:03:30;;;;;;;15.57;10.97;;;;;;;6.78;100.00;100349.91;10374999;28;20107;-83
2022/11/18 21:08:31;;;;;;;17.15;10.90;;;;;;;6.68;100.00;100345.00;10356914;28;20041;-82
2022/11/18 21:18:50;;;;;;;19.67;11.52;;;;;;;6.51;100.00;100346.66;10347163;28;20038;-83
2022/11/18 21:23:57;;;;;;;26.33;14.15;;;;;;;6.46;100.00;100359.44;10351344;28;20128;-80
2022/11/18 21:29:00;;;;;;;19.58;12.70;;;;;;;6.49;100.00;100361.28;10343934;28;20371;-82
2022/11/18 21:34:00;;;;;;;25.65;13.68;;;;;;;6.50;100.00;100370.88;10358731;28;20092;-82
2022/11/18 21:39:01;;;;;;;20.05;14.05;;;;;;;6.53;100.00;100366.75;10344121;28;20033;-84
2022/11/18 21:44:02;;;;;;;25.33;16.80;;;;;;;6.61;100.00;100381.09;10375551;28;20509;-82
2022/11/18 21:49:03;;;;;;;21.42;14.60;;;;;;;6.87;100.00;100381.63;10342315;28;20042;-83
2022/11/18 21:54:04;;;;;;;21.75;15.95;;;;;;;6.84;100.00;100381.47;10371796;28;20548;-85
2022/11/18 21:59:06;;;;;;;26.17;18.23;;;;;;;6.82;100.00;100385.69;10392355;28;20037;-86
2022/11/18 22:04:06;;;;;;;25.55;18.48;;;;;;;6.85;100.00;100385.84;10378496;28;20052;-87
2022/11/18 22:09:07;;;;;;;28.05;20.02;;;;;;;6.83;100.00;100399.56;10384327;28;20048;-88
2022/11/18 22:14:08;;;;;;;34.45;23.75;;;;;;;6.86;100.00;100400.66;10384369;28;20080;-89
2022/11/18 22:19:08;;;;;;;19.50;15.15;;;;;;;6.85;100.00;100404.06;10376891;28;20125;-89
2022/11/18 22:24:09;;;;;;;15.00;8.45;;;;;;;6.74;100.00;100402.56;10365161;28;20126;-90
2022/11/18 22:29:10;;;;;;;9.60;6.47;;;;;;;6.59;100.00;100405.19;10376844;28;20133;-89
2022/11/18 22:34:10;;;;;;;11.80;5.55;;;;;;;6.46;100.00;100408.81;10374665;28;20091;-89
2022/11/18 22:39:12;;;;;;;7.33;5.40;;;;;;;6.40;100.00;100405.88;10380036;28;20148;-90
2022/11/18 22:44:15;;;;;;;8.65;5.70;;;;;;;6.34;100.00;100419.41;10374994;28;20287;-88
2022/11/18 22:49:15;;;;;;;11.07;4.78;;;;;;;6.29;100.00;100413.03;10363944;28;20045;-88
2022/11/18 22:54:16;;;;;;;7.93;4.90;;;;;;;6.22;100.00;100422.19;10374686;28;20490;-86
2022/11/18 22:59:16;;;;;;;10.80;5.28;;;;;;;6.21;100.00;100427.28;10388600;28;20125;-87
2022/11/18 23:04:17;;;;;;;9.18;5.43;;;;;;;6.21;100.00;100436.00;10376041;28;20074;-88
2022/11/18 23:09:17;;;;;;;19.02;9.57;;;;;;;6.31;100.00;100433.13;10380533;28;20073;-89
2022/11/18 23:14:18;;;;;;;17.85;11.27;;;;;;;6.41;100.00;100438.84;10381652;28;20482;-89
2022/11/18 23:19:18;;;;;;;35.63;23.38;;;;;;;6.38;100.00;100452.56;10383621;28;20043;-90
2022/11/18 23:24:19;;;;;;;40.42;27.88;;;;;;;6.23;100.00;100460.38;10373868;28;20034;-89
2022/11/18 23:29:19;;;;;;;40.00;28.00;;;;;;;6.20;100.00;100462.78;10381840;28;20121;-90
2022/11/18 23:34:20;;;;;;;50.42;30.90;;;;;;;6.14;100.00;100471.09;10381108;28;20136;-89
2022/11/18 23:39:20;;;;;;;58.47;32.05;;;;;;;6.01;100.00;100474.69;10357875;28;20129;-90
2022/11/18 23:44:43;;;;;;;55.03;33.72;;;;;;;5.98;100.00;100479.66;10374516;28;20044;-90
2022/11/18 23:49:41;;;;;;;56.38;32.70;;;;;;;5.91;100.00;100471.41;10380867;28;20041;-89
2022/11/18 23:54:42;;;;;;;58.72;36.38;;;;;;;5.76;100.00;100476.59;10376609;28;20440;-89